Time;durP1;ratioP1;P1;durP2;ratioP2;P2;SDS_P1;SDS_P2;PMS_P1;PMS_P2;Temp;Humidity;BMP_temperature;BMP_pressure;BME280_temperature;BME280_humidity;BME280_pressure;Samples;Min_cycle;Max_cycle;Signal;HPM_P1;HPM_P2
2023/04/13 00:00:41;;;;;;;4.72;1.70;;;5.60;99.90;;;;;;4028841;29;20068;-90
2023/04/13 00:02:42;;;;;;;5.53;1.70;;;5.60;99.90;;;;;;4041927;29;20063;-90
2023/04/13 00:04:49;;;;;;;5.03;1.42;;;5.20;99.90;;;;;;4026574;29;20049;-90
2023/04/13 00:06:51;;;;;;;3.88;1.90;;;5.20;99.90;;;;;;4027076;29;20045;-90
2023/04/13 00:08:53;;;;;;;5.70;1.90;;;4.40;99.90;;;;;;4025149;29;20148;-90
2023/04/13 00:10:56;;;;;;;4.65;1.40;;;5.60;99.90;;;;;;4015684;29;20065;-90
2023/04/13 00:13:04;;;;;;;3.45;1.75;;;5.60;99.90;;;;;;4025526;29;20515;-90
2023/04/13 00:15:08;;;;;;;1.95;1.17;;;5.60;99.90;;;;;;4026258;29;20054;-90
2023/04/13 00:17:09;;;;;;;5.32;1.60;;;5.70;99.90;;;;;;4043486;29;20060;-91
2023/04/13 00:19:11;;;;;;;7.53;1.83;;;4.90;99.90;;;;;;4026181;29;20491;-91
2023/04/13 00:21:15;;;;;;;4.70;1.80;;;5.70;99.90;;;;;;4017252;29;20050;-90
2023/04/13 00:23:17;;;;;;;4.25;1.83;;;5.10;99.90;;;;;;4026361;29;20064;-90
2023/04/13 00:25:19;;;;;;;4.15;1.55;;;5.80;99.90;;;;;;4025761;29;20483;-91
2023/04/13 00:27:25;;;;;;;4.60;1.85;;;5.80;99.90;;;;;;4042625;29;20045;-89
2023/04/13 00:29:27;;;;;;;8.13;1.70;;;5.80;99.90;;;;;;4027291;29;20046;-90
2023/04/13 00:31:36;;;;;;;3.35;1.75;;;5.80;99.90;;;;;;4028278;29;20380;-90
2023/04/13 00:33:40;;;;;;;4.10;2.40;;;7.00;99.90;;;;;;4026667;29;20129;-90
2023/04/13 00:35:42;;;;;;;5.32;1.83;;;5.80;99.90;;;;;;4026311;29;20494;-91
2023/04/13 00:37:47;;;;;;;3.17;1.90;;;5.90;99.90;;;;;;4027033;29;20052;-90
2023/04/13 00:39:54;;;;;;;3.92;2.08;;;6.00;99.90;;;;;;4026721;29;20050;-91
2023/04/13 00:42:01;;;;;;;4.10;2.10;;;6.00;99.90;;;;;;4027175;29;20051;-91
2023/04/13 00:44:04;;;;;;;6.28;2.35;;;5.90;99.90;;;;;;4042592;29;20053;-90
2023/04/13 00:46:07;;;;;;;6.03;2.15;;;5.90;99.90;;;;;;4041995;29;20073;-91
2023/04/13 00:48:09;;;;;;;3.92;2.45;;;5.90;99.90;;;;;;4042336;29;20037;-91
2023/04/13 00:50:12;;;;;;;3.90;2.42;;;6.00;99.90;;;;;;4041648;29;20441;-91
2023/04/13 00:52:14;;;;;;;8.40;3.28;;;5.90;99.90;;;;;;4041197;29;20085;-91
2023/04/13 00:54:18;;;;;;;8.13;2.92;;;6.00;99.90;;;;;;4041694;29;20049;-91
2023/04/13 00:56:21;;;;;;;3.58;1.90;;;5.90;99.90;;;;;;4034781;29;20045;-90
2023/04/13 00:58:23;;;;;;;4.93;2.30;;;6.00;99.90;;;;;;4025449;29;20049;-90
2023/04/13 01:00:26;;;;;;;6.07;2.10;;;6.00;99.90;;;;;;4010486;29;20050;-91
2023/04/13 01:02:27;;;;;;;6.30;2.40;;;6.00;99.90;;;;;;4013981;29;20054;-91
2023/04/13 01:04:32;;;;;;;6.13;2.72;;;6.00;99.90;;;;;;4013215;29;20049;-91
2023/04/13 01:06:40;;;;;;;4.25;2.30;;;6.00;99.90;;;;;;4012975;29;20513;-91
2023/04/13 01:08:53;;;;;;;6.40;2.35;;;6.00;99.90;;;;;;4028529;29;20064;-91
2023/04/13 01:11:10;;;;;;;4.60;2.72;;;6.00;99.90;;;;;;4028468;29;20085;-91
2023/04/13 01:13:39;;;;;;;7.57;2.95;;;6.10;99.90;;;;;;4023613;29;20085;-90
2023/04/13 01:15:45;;;;;;;4.65;2.78;;;6.10;99.90;;;;;;4044387;29;20045;-91
2023/04/13 01:17:55;;;;;;;4.75;2.80;;;6.20;99.90;;;;;;4029073;29;20113;-92
2023/04/13 01:20:10;;;;;;;13.57;3.40;;;6.20;99.90;;;;;;4036727;29;20049;-92
2023/04/13 01:22:13;;;;;;;7.47;3.20;;;6.20;99.90;;;;;;4028741;29;20049;-92
2023/04/13 01:24:52;;;;;;;5.07;3.20;;;6.70;99.90;;;;;;4044908;29;20061;-92
2023/04/13 01:27:05;;;;;;;4.78;2.80;;;6.10;99.90;;;;;;4046399;29;20025;-93
2023/04/13 01:29:08;;;;;;;6.93;2.83;;;6.10;99.90;;;;;;4032734;29;20363;-92
2023/04/13 01:31:12;;;;;;;4.68;2.60;;;6.00;99.90;;;;;;4045472;29;20124;-92
2023/04/13 01:33:13;;;;;;;3.53;2.63;;;5.90;99.90;;;;;;4046546;29;20045;-93
2023/04/13 01:35:17;;;;;;;6.32;3.15;;;5.80;99.90;;;;;;4030695;29;20052;-93
2023/04/13 01:37:28;;;;;;;5.28;3.20;;;5.70;99.90;;;;;;4047065;29;20118;-92
2023/04/13 01:39:31;;;;;;;6.25;3.33;;;5.80;99.90;;;;;;4031952;29;20110;-93
2023/04/13 01:41:35;;;;;;;7.15;4.22;;;5.70;99.90;;;;;;4030670;29;20054;-93
2023/04/13 01:43:37;;;;;;;5.13;3.22;;;5.80;99.90;;;;;;4031128;29;20127;-93
2023/04/13 01:46:05;;;;;;;6.80;3.20;;;5.70;99.90;;;;;;4030405;29;20050;-93
2023/04/13 01:48:24;;;;;;;7.70;3.13;;;5.70;99.90;;;;;;4030059;29;20053;-92
2023/04/13 01:50:33;;;;;;;5.50;2.40;;;5.80;99.90;;;;;;4030012;29;20096;-93
2023/04/13 01:52:38;;;;;;;3.15;2.25;;;5.70;99.90;;;;;;4027419;29;20073;-92
2023/04/13 01:54:45;;;;;;;6.40;2.33;;;5.30;99.90;;;;;;4029337;29;20056;-92
2023/04/13 01:56:47;;;;;;;4.35;2.15;;;5.70;99.90;;;;;;4014264;29;20114;-92
2023/04/13 01:58:55;;;;;;;5.57;2.42;;;5.70;99.90;;;;;;4017203;29;20133;-91
2023/04/13 02:00:55;;;;;;;2.85;1.83;;;6.90;99.90;;;;;;4031094;29;20056;-92
2023/04/13 02:02:57;;;;;;;3.63;1.88;;;6.10;99.90;;;;;;4030003;29;20053;-91
2023/04/13 02:05:00;;;;;;;4.25;1.80;;;5.70;99.90;;;;;;4014332;29;20042;-92
2023/04/13 02:07:11;;;;;;;4.28;2.13;;;5.80;99.90;;;;;;4013066;29;20133;-91
2023/04/13 02:09:12;;;;;;;5.63;2.92;;;5.70;99.90;;;;;;4028328;29;20534;-92
2023/04/13 02:11:13;;;;;;;4.07;2.17;;;4.80;99.90;;;;;;4030151;29;20067;-91
2023/04/13 02:13:15;;;;;;;2.42;1.65;;;5.70;99.90;;;;;;4046737;29;20057;-91
2023/04/13 02:15:17;;;;;;;2.83;1.85;;;5.70;99.90;;;;;;4032521;29;20132;-92
2023/04/13 02:17:19;;;;;;;3.03;1.80;;;5.70;99.90;;;;;;4034080;29;20045;-91
2023/04/13 02:19:24;;;;;;;2.67;1.40;;;5.60;99.90;;;;;;4034447;29;20045;-92
2023/04/13 02:21:27;;;;;;;4.65;1.92;;;4.40;99.90;;;;;;4058646;29;20033;-90
2023/04/13 02:23:30;;;;;;;3.38;1.88;;;5.70;99.90;;;;;;4042985;29;20077;-91
2023/04/13 02:25:35;;;;;;;6.53;2.13;;;5.60;99.90;;;;;;4073181;29;20052;-92
2023/04/13 02:27:44;;;;;;;3.08;1.60;;;5.20;99.90;;;;;;4041190;29;20030;-92
2023/04/13 02:29:46;;;;;;;;;;;5.70;99.90;;;;;;4058317;29;20033;-92
2023/04/13 02:31:49;;;;;;;3.05;1.60;;;6.00;99.90;;;;;;4036503;29;19980;-91
2023/04/13 02:33:57;;;;;;;3.45;1.55;;;5.70;99.90;;;;;;4046866;29;20033;-92
2023/04/13 02:36:02;;;;;;;4.38;1.63;;;5.70;99.90;;;;;;4030679;29;20053;-92
2023/04/13 02:38:06;;;;;;;4.78;1.60;;;5.70;99.90;;;;;;4032339;29;20096;-92
2023/04/13 02:40:09;;;;;;;1.92;1.42;;;5.70;99.90;;;;;;4032900;29;20054;-92
2023/04/13 02:42:10;;;;;;;8.82;1.95;;;5.70;99.90;;;;;;4046293;29;20053;-92
2023/04/13 02:44:12;;;;;;;5.25;1.45;;;5.60;99.90;;;;;;4032234;29;20052;-91
2023/04/13 02:46:14;;;;;;;3.65;1.55;;;5.60;99.90;;;;;;4029865;29;20548;-92
2023/04/13 02:48:18;;;;;;;3.80;1.40;;;5.70;99.90;;;;;;4045934;29;20063;-91
2023/04/13 02:50:20;;;;;;;3.88;2.08;;;6.40;99.90;;;;;;4029168;29;20045;-91
2023/04/13 02:52:23;;;;;;;3.17;1.50;;;5.80;99.90;;;;;;4027811;29;20045;-90
2023/04/13 02:54:26;;;;;;;3.25;1.50;;;5.70;99.90;;;;;;4029463;29;20045;-91
2023/04/13 02:56:29;;;;;;;2.05;1.25;;;5.70;99.90;;;;;;4028648;29;20049;-91
2023/04/13 02:58:31;;;;;;;4.57;1.52;;;5.70;99.90;;;;;;4029112;29;20057;-92
2023/04/13 03:00:33;;;;;;;2.75;1.33;;;5.70;99.90;;;;;;4043592;29;20123;-92
2023/04/13 03:02:36;;;;;;;6.38;1.40;;;5.70;99.90;;;;;;4045084;29;20078;-92
2023/04/13 03:04:37;;;;;;;2.17;1.50;;;5.80;99.90;;;;;;4040385;29;20442;-93
2023/04/13 03:06:43;;;;;;;2.20;1.33;;;6.80;99.90;;;;;;4030552;29;20073;-93
2023/04/13 03:08:46;;;;;;;5.38;2.03;;;6.20;99.90;;;;;;4031267;29;20053;-93
2023/04/13 03:10:48;;;;;;;3.72;1.50;;;5.70;99.90;;;;;;4042966;29;20061;-92
2023/04/13 03:12:50;;;;;;;2.42;1.33;;;5.70;99.90;;;;;;4029938;29;20095;-92
2023/04/13 03:14:52;;;;;;;2.67;1.20;;;5.80;99.90;;;;;;4028487;29;20049;-93
2023/04/13 03:16:53;;;;;;;2.25;1.25;;;5.80;99.90;;;;;;4028382;29;20411;-92
2023/04/13 03:18:56;;;;;;;2.25;1.40;;;4.60;99.90;;;;;;4028785;29;20049;-93
2023/04/13 03:20:57;;;;;;;3.45;1.25;;;5.70;99.90;;;;;;4028128;29;20063;-92
2023/04/13 03:23:00;;;;;;;2.25;1.20;;;5.80;99.90;;;;;;4026073;29;20042;-92
2023/04/13 03:25:01;;;;;;;2.85;1.20;;;5.70;99.90;;;;;;4042889;29;20125;-92
2023/04/13 03:27:02;;;;;;;2.17;1.13;;;5.70;99.90;;;;;;4029553;29;20098;-92
2023/04/13 03:29:04;;;;;;;4.20;0.98;;;5.80;99.90;;;;;;4028555;29;20057;-93
2023/04/13 03:31:13;;;;;;;5.75;1.05;;;6.70;99.90;;;;;;4043629;29;20091;-91
2023/04/13 03:33:16;;;;;;;2.60;1.00;;;5.80;99.90;;;;;;4029304;29;20037;-92
2023/04/13 03:35:21;;;;;;;2.50;1.20;;;5.90;99.90;;;;;;4029434;29;20053;-92
2023/04/13 03:37:28;;;;;;;4.28;1.30;;;5.80;99.90;;;;;;4030423;29;20055;-92
2023/04/13 03:39:30;;;;;;;1.50;0.90;;;5.80;99.90;;;;;;4043280;29;20117;-92
2023/04/13 03:41:30;;;;;;;5.93;1.35;;;5.80;99.90;;;;;;4013007;29;20110;-93
2023/04/13 03:43:34;;;;;;;1.25;1.00;;;5.90;99.90;;;;;;4018915;29;20062;-92
2023/04/13 03:45:37;;;;;;;3.95;1.35;;;5.80;99.90;;;;;;4028304;29;20110;-92
2023/04/13 03:47:46;;;;;;;4.60;1.38;;;5.80;99.90;;;;;;4030963;29;20053;-92
2023/04/13 03:49:48;;;;;;;2.67;1.42;;;5.60;99.90;;;;;;4028574;29;20502;-92
2023/04/13 03:51:50;;;;;;;2.30;1.05;;;5.90;99.90;;;;;;4027882;29;20542;-93
2023/04/13 03:53:54;;;;;;;2.45;1.75;;;5.30;99.90;;;;;;4029218;29;20034;-92
2023/04/13 03:56:01;;;;;;;2.25;1.00;;;5.80;99.90;;;;;;4048836;29;20133;-92
2023/04/13 03:58:06;;;;;;;5.10;1.30;;;6.20;99.90;;;;;;4015373;29;20095;-92
2023/04/13 04:00:12;;;;;;;4.47;1.25;;;6.20;99.90;;;;;;4013532;29;20081;-91
2023/04/13 04:02:16;;;;;;;2.58;1.20;;;5.80;99.90;;;;;;4043655;29;20124;-91
2023/04/13 04:04:23;;;;;;;4.57;1.10;;;5.10;99.90;;;;;;4028582;29;20477;-93
2023/04/13 04:06:30;;;;;;;2.78;1.13;;;5.90;99.90;;;;;;4014281;29;20454;-93
2023/04/13 04:08:31;;;;;;;1.70;1.10;;;6.10;99.90;;;;;;4013851;29;20491;-92
2023/04/13 04:10:32;;;;;;;1.85;0.85;;;6.00;99.90;;;;;;4028979;29;20068;-92
2023/04/13 04:12:35;;;;;;;2.03;1.08;;;5.90;99.90;;;;;;4014407;29;20093;-92
2023/04/13 04:14:37;;;;;;;1.55;0.95;;;4.90;99.90;;;;;;4023342;29;20126;-92
2023/04/13 04:16:45;;;;;;;5.40;1.30;;;6.00;99.90;;;;;;4029176;29;20045;-92
2023/04/13 04:18:53;;;;;;;3.58;1.30;;;5.90;99.90;;;;;;4013772;29;20046;-92
2023/04/13 04:20:55;;;;;;;1.85;1.30;;;6.10;99.90;;;;;;4014453;29;20038;-91
2023/04/13 04:23:03;;;;;;;2.55;1.20;;;6.00;99.90;;;;;;4011207;29;20045;-91
2023/04/13 04:25:05;;;;;;;3.25;1.20;;;6.10;99.90;;;;;;4012820;29;20063;-91
2023/04/13 04:27:08;;;;;;;1.75;1.20;;;6.00;99.90;;;;;;4014746;29;20514;-92
2023/04/13 04:29:12;;;;;;;2.95;1.20;;;6.00;99.90;;;;;;4016502;29;20050;-92
2023/04/13 04:31:16;;;;;;;2.60;1.02;;;5.90;99.90;;;;;;4045252;29;20058;-92
2023/04/13 04:33:23;;;;;;;1.65;1.20;;;5.90;99.90;;;;;;4057413;29;20072;-91
2023/04/13 04:35:32;;;;;;;3.13;1.08;;;5.90;99.90;;;;;;4013147;29;20511;-92
2023/04/13 04:37:36;;;;;;;1.90;1.10;;;5.90;99.90;;;;;;4017751;29;20081;-93
2023/04/13 04:39:43;;;;;;;1.60;1.30;;;5.90;99.90;;;;;;4032020;29;20105;-92
2023/04/13 04:41:54;;;;;;;3.08;1.10;;;5.90;99.90;;;;;;4048527;29;20102;-92
2023/04/13 04:44:01;;;;;;;3.97;1.20;;;5.80;99.90;;;;;;4032883;29;20063;-91
2023/04/13 04:46:07;;;;;;;3.67;0.98;;;6.20;99.90;;;;;;4063109;29;20067;-92
2023/04/13 04:48:12;;;;;;;5.43;1.58;;;5.80;99.90;;;;;;4030118;29;20085;-92
2023/04/13 04:50:19;;;;;;;4.03;1.30;;;5.90;99.90;;;;;;4032386;29;20049;-92
2023/04/13 04:52:21;;;;;;;3.83;1.30;;;5.80;99.90;;;;;;4048710;29;20200;-92
2023/04/13 04:54:23;;;;;;;3.25;1.40;;;6.60;99.90;;;;;;4049826;29;20109;-92
2023/04/13 04:56:25;;;;;;;3.63;1.25;;;4.80;99.90;;;;;;4049910;29;20481;-91
2023/04/13 04:58:26;;;;;;;4.88;1.45;;;5.70;99.90;;;;;;4046538;29;20569;-92
2023/04/13 05:00:29;;;;;;;3.03;1.60;;;5.60;99.90;;;;;;4030080;29;20037;-92
2023/04/13 05:02:32;;;;;;;2.00;1.33;;;5.60;99.90;;;;;;4034897;29;20057;-92
2023/04/13 05:04:36;;;;;;;2.65;1.50;;;5.60;99.90;;;;;;4022273;29;20053;-92
2023/04/13 05:06:40;;;;;;;2.15;1.30;;;5.60;99.90;;;;;;4033240;29;20056;-90
2023/04/13 05:08:48;;;;;;;4.65;1.77;;;5.70;99.90;;;;;;4050106;29;20029;-90
2023/04/13 05:11:19;;;;;;;3.10;1.45;;;5.70;99.90;;;;;;4033179;29;20135;-90
2023/04/13 05:13:27;;;;;;;5.22;2.00;;;5.70;99.90;;;;;;4020023;29;20061;-90
2023/04/13 05:15:29;;;;;;;3.03;1.27;;;5.70;99.90;;;;;;4030887;29;20053;-91
2023/04/13 05:17:37;;;;;;;3.03;2.00;;;5.90;99.90;;;;;;4037748;29;20061;-92
2023/04/13 05:19:38;;;;;;;3.55;1.60;;;4.60;99.90;;;;;;4016630;29;20821;-91
2023/04/13 05:21:42;;;;;;;4.80;1.70;;;5.80;99.90;;;;;;4020235;29;20439;-91
2023/04/13 05:23:45;;;;;;;5.70;2.67;;;5.80;99.90;;;;;;4025545;29;20057;-90
2023/04/13 05:25:47;;;;;;;5.25;1.75;;;5.10;99.90;;;;;;4027041;29;20034;-91
2023/04/13 05:27:48;;;;;;;3.72;1.75;;;5.90;99.90;;;;;;4027553;29;20074;-91
2023/04/13 05:29:51;;;;;;;2.28;1.90;;;6.60;99.90;;;;;;4026750;29;20605;-91
2023/04/13 05:31:57;;;;;;;3.17;2.00;;;5.90;99.90;;;;;;4021515;29;20030;-91
2023/04/13 05:34:07;;;;;;;4.80;2.42;;;5.90;99.90;;;;;;4040485;29;20049;-92
2023/04/13 05:36:09;;;;;;;4.45;2.03;;;5.90;99.90;;;;;;4031421;29;20113;-90
2023/04/13 05:38:11;;;;;;;3.92;2.17;;;5.90;99.90;;;;;;4038063;29;20045;-91
2023/04/13 05:40:14;;;;;;;6.57;2.47;;;6.00;99.90;;;;;;4033900;29;20049;-90
2023/04/13 05:42:23;;;;;;;5.43;2.80;;;6.00;99.90;;;;;;4030602;29;20593;-91
2023/04/13 05:44:32;;;;;;;7.88;2.90;;;5.30;99.90;;;;;;4036685;29;20049;-91
2023/04/13 05:46:38;;;;;;;6.47;2.60;;;7.30;99.90;;;;;;4019674;29;20081;-90
2023/04/13 05:48:40;;;;;;;3.88;2.28;;;6.00;99.90;;;;;;4017551;29;20110;-90
2023/04/13 05:50:50;;;;;;;6.43;2.55;;;6.00;99.90;;;;;;4014150;29;20094;-91
2023/04/13 05:53:00;;;;;;;3.95;1.95;;;6.00;99.90;;;;;;4012690;29;20050;-91
2023/04/13 05:55:02;;;;;;;4.55;1.88;;;6.00;99.90;;;;;;4031155;29;20070;-92
2023/04/13 05:57:05;;;;;;;8.00;2.30;;;6.10;99.90;;;;;;4027210;29;20101;-91
2023/04/13 05:59:08;;;;;;;3.78;2.60;;;6.20;99.90;;;;;;4015086;29;20167;-92
2023/04/13 06:01:11;;;;;;;3.40;2.35;;;5.30;99.90;;;;;;4015088;29;20503;-92
2023/04/13 06:03:14;;;;;;;4.47;2.42;;;6.30;99.90;;;;;;4015690;29;20137;-92
2023/04/13 06:05:17;;;;;;;8.00;2.55;;;6.20;99.90;;;;;;4029857;29;20050;-91
2023/04/13 06:07:20;;;;;;;3.75;2.67;;;6.30;99.90;;;;;;4013610;29;20054;-92
2023/04/13 06:09:22;;;;;;;5.05;2.42;;;6.30;99.90;;;;;;4014227;29;20115;-92
2023/04/13 06:11:27;;;;;;;5.15;2.15;;;6.40;99.90;;;;;;4041812;29;20064;-92
2023/04/13 06:13:30;;;;;;;6.45;2.28;;;6.50;99.90;;;;;;4027555;29;20053;-93
2023/04/13 06:15:35;;;;;;;7.18;2.33;;;6.60;99.90;;;;;;4029140;29;20053;-91
2023/04/13 06:17:40;;;;;;;5.22;1.98;;;6.50;99.90;;;;;;4028033;29;20056;-91
2023/04/13 06:19:42;;;;;;;6.18;2.20;;;6.70;99.90;;;;;;4029735;29;20105;-91
2023/04/13 06:21:44;;;;;;;2.75;1.60;;;6.80;99.90;;;;;;4019896;29;20467;-91
2023/04/13 06:23:49;;;;;;;4.20;1.65;;;6.80;99.90;;;;;;4028436;29;20049;-91
2023/04/13 06:25:53;;;;;;;6.90;1.90;;;6.80;99.90;;;;;;4045044;29;20053;-91
2023/04/13 06:27:55;;;;;;;6.70;2.45;;;6.80;99.90;;;;;;4042678;29;20422;-93
2023/04/13 06:29:58;;;;;;;8.35;2.45;;;6.00;99.90;;;;;;4029882;29;20221;-93
2023/04/13 06:32:05;;;;;;;5.85;1.80;;;6.70;99.90;;;;;;4057731;29;20459;-92
2023/04/13 06:34:08;;;;;;;7.93;2.42;;;6.80;99.90;;;;;;4042601;29;20053;-92
2023/04/13 06:36:10;;;;;;;5.97;2.10;;;6.70;99.90;;;;;;4027827;29;20045;-92
2023/04/13 06:38:11;;;;;;;4.97;2.10;;;6.60;99.90;;;;;;4041089;29;20101;-92
2023/04/13 06:40:15;;;;;;;5.72;2.00;;;6.70;99.90;;;;;;4028985;29;20034;-93
2023/04/13 06:42:17;;;;;;;6.13;2.75;;;6.10;99.90;;;;;;4011452;29;20060;-91
2023/04/13 06:44:21;;;;;;;3.88;1.83;;;7.60;99.90;;;;;;3998394;29;20047;-90
2023/04/13 06:46:26;;;;;;;5.22;2.22;;;6.80;99.90;;;;;;4028267;29;20074;-93
2023/04/13 06:48:28;;;;;;;5.25;1.77;;;6.70;99.90;;;;;;4011385;29;20050;-92
2023/04/13 06:50:30;;;;;;;4.43;2.15;;;6.80;99.90;;;;;;4013001;29;20041;-91
2023/04/13 06:52:33;;;;;;;4.95;1.52;;;5.70;99.90;;;;;;4026812;29;20085;-91
2023/04/13 06:54:34;;;;;;;5.53;1.50;;;7.30;99.90;;;;;;4031367;29;20421;-93
2023/04/13 06:56:36;;;;;;;5.35;1.67;;;8.00;99.90;;;;;;4028134;29;20570;-91
2023/04/13 06:58:44;;;;;;;1.83;1.02;;;6.70;99.90;;;;;;4042532;29;20053;-92
2023/04/13 07:00:50;;;;;;;3.25;1.05;;;7.00;99.90;;;;;;4028084;29;20041;-91
2023/04/13 07:02:54;;;;;;;3.00;1.35;;;6.80;99.90;;;;;;4052930;29;20074;-91
2023/04/13 07:04:56;;;;;;;2.45;1.48;;;6.80;99.90;;;;;;4046501;29;20052;-89
2023/04/13 07:06:56;;;;;;;4.15;1.73;;;6.80;99.90;;;;;;4047504;29;20046;-92
2023/04/13 07:08:58;;;;;;;6.03;1.60;;;6.90;99.90;;;;;;4035010;29;20065;-92
2023/04/13 07:11:01;;;;;;;4.00;1.73;;;6.70;99.90;;;;;;4032404;29;20385;-92
2023/04/13 07:13:06;;;;;;;4.53;1.75;;;6.80;99.90;;;;;;4041530;29;20037;-92
2023/04/13 07:15:08;;;;;;;7.32;2.05;;;6.80;99.90;;;;;;4042090;29;20053;-93
2023/04/13 07:17:10;;;;;;;5.63;2.00;;;6.80;99.90;;;;;;4042001;29;20029;-94
2023/04/13 07:19:13;;;;;;;4.65;2.00;;;6.90;99.90;;;;;;4057928;29;20052;-94
2023/04/13 07:21:19;;;;;;;4.80;2.10;;;6.90;99.90;;;;;;4057822;29;20029;-93
2023/04/13 07:23:22;;;;;;;3.42;1.63;;;7.00;99.90;;;;;;4052280;29;20060;-94
2023/04/13 07:25:24;;;;;;;4.90;2.40;;;7.10;99.90;;;;;;4061939;29;20067;-92
2023/04/13 07:27:25;;;;;;;8.70;2.97;;;7.90;99.90;;;;;;4043225;29;20045;-94
2023/04/13 07:29:27;;;;;;;10.98;2.72;;;7.40;99.90;;;;;;4030936;29;20109;-93
2023/04/13 07:31:28;;;;;;;8.32;2.40;;;7.50;99.90;;;;;;4031641;29;20052;-93
2023/04/13 07:33:30;;;;;;;5.95;2.63;;;7.60;99.90;;;;;;4031166;29;20053;-92
2023/04/13 07:35:35;;;;;;;8.10;1.90;;;7.50;99.90;;;;;;4031969;29;20049;-93
2023/04/13 07:37:37;;;;;;;8.52;2.35;;;7.70;99.90;;;;;;4029509;29;20060;-93
2023/04/13 07:39:39;;;;;;;8.35;2.72;;;7.70;99.90;;;;;;4040629;29;20069;-93
2023/04/13 07:41:50;;;;;;;12.90;3.33;;;8.40;99.90;;;;;;4024266;29;20045;-94
2023/04/13 07:43:52;;;;;;;5.40;1.90;;;7.70;99.90;;;;;;4026383;29;20050;-93
2023/04/13 07:45:53;;;;;;;4.20;1.95;;;7.80;99.90;;;;;;4026932;29;20051;-93
2023/04/13 07:47:56;;;;;;;6.43;2.05;;;7.90;99.90;;;;;;4034584;29;20089;-93
2023/04/13 07:49:58;;;;;;;13.20;4.32;;;7.80;99.90;;;;;;4048317;29;20140;-94
2023/04/13 07:52:00;;;;;;;5.53;2.38;;;8.30;99.90;;;;;;4027958;29;20056;-93
2023/04/13 07:54:01;;;;;;;6.93;2.55;;;8.20;99.90;;;;;;4032323;29;20052;-92
2023/04/13 07:56:10;;;;;;;6.60;1.63;;;8.20;99.90;;;;;;4028720;29;20053;-93
2023/04/13 07:58:11;;;;;;;;;;;8.40;99.90;;;;;;4013707;29;20042;-93
2023/04/13 08:00:13;;;;;;;4.47;1.95;;;8.60;99.90;;;;;;4032555;29;19933;-93
2023/04/13 08:02:19;;;;;;;5.50;2.38;;;8.70;99.90;;;;;;4043277;29;20072;-93
2023/04/13 08:04:22;;;;;;;8.13;2.00;;;8.90;99.90;;;;;;4059368;29;20036;-93
2023/04/13 08:06:37;;;;;;;6.57;2.10;;;9.00;99.90;;;;;;4029186;29;20045;-92
2023/04/13 08:08:38;;;;;;;3.55;1.80;;;9.30;99.90;;;;;;4028179;29;20045;-93
2023/04/13 08:10:39;;;;;;;5.20;3.25;;;9.10;99.90;;;;;;4043102;29;20143;-93
2023/04/13 08:12:40;;;;;;;9.25;2.08;;;9.00;99.90;;;;;;4038298;29;20080;-93
2023/04/13 08:14:42;;;;;;;4.78;1.40;;;8.10;99.90;;;;;;4028974;29;20032;-92
2023/04/13 08:16:44;;;;;;;11.90;2.30;;;8.80;99.90;;;;;;4028682;29;20061;-93
2023/04/13 08:18:45;;;;;;;8.57;2.80;;;8.80;99.90;;;;;;4027101;29;20053;-91
2023/04/13 08:20:47;;;;;;;4.10;1.50;;;8.70;99.90;;;;;;4016187;29;20065;-93
2023/04/13 08:22:48;;;;;;;3.92;1.60;;;8.80;99.90;;;;;;4042973;29;20061;-92
2023/04/13 08:24:52;;;;;;;5.22;1.98;;;9.90;99.90;;;;;;4027460;29;20057;-92
2023/04/13 08:26:56;;;;;;;5.85;1.55;;;8.90;99.90;;;;;;4041445;29;20073;-92
2023/04/13 08:29:05;;;;;;;2.92;1.20;;;8.80;99.90;;;;;;4027998;29;20049;-93
2023/04/13 08:31:08;;;;;;;3.20;1.40;;;8.90;99.90;;;;;;4028026;29;20049;-92
2023/04/13 08:33:11;;;;;;;4.50;1.20;;;8.90;99.90;;;;;;4018539;29;20045;-91
2023/04/13 08:35:12;;;;;;;3.03;1.17;;;8.80;99.90;;;;;;4027405;29;20049;-91
2023/04/13 08:37:15;;;;;;;3.80;1.10;;;8.90;99.90;;;;;;4027151;29;20053;-91
2023/04/13 08:39:16;;;;;;;2.17;0.93;;;9.20;99.90;;;;;;4045138;29;20052;-92
2023/04/13 08:41:23;;;;;;;5.07;1.23;;;8.90;99.90;;;;;;4022119;29;20089;-93
2023/04/13 08:43:26;;;;;;;3.28;1.50;;;9.10;99.90;;;;;;4059908;29;20130;-92
2023/04/13 08:45:35;;;;;;;7.05;1.23;;;9.10;99.90;;;;;;4061348;29;20431;-94
2023/04/13 08:47:40;;;;;;;3.53;0.70;;;9.30;99.90;;;;;;4030409;29;20430;-95
2023/04/13 08:49:49;;;;;;;2.53;0.88;;;9.20;99.90;;;;;;4046953;29;20085;-93
2023/04/13 08:51:52;;;;;;;3.33;1.35;;;9.20;99.90;;;;;;4044327;29;20049;-93
2023/04/13 08:53:57;;;;;;;2.58;0.75;;;8.30;99.90;;;;;;4027452;29;20084;-91
2023/04/13 08:56:02;;;;;;;4.68;0.93;;;9.30;99.90;;;;;;4027743;29;20120;-93
2023/04/13 08:58:04;;;;;;;3.33;0.90;;;9.80;99.90;;;;;;4013101;29;20038;-90
2023/04/13 09:00:12;;;;;;;5.93;1.17;;;9.10;99.90;;;;;;4022925;29;20082;-90
2023/04/13 09:02:14;;;;;;;2.38;0.82;;;9.00;99.90;;;;;;4040550;29;20072;-92
2023/04/13 09:04:25;;;;;;;3.25;0.80;;;8.90;99.90;;;;;;4025406;29;20048;-92
2023/04/13 09:06:41;;;;;;;2.78;0.45;;;9.10;99.90;;;;;;4011614;29;20169;-93
2023/04/13 09:08:54;;;;;;;3.70;0.70;;;8.70;99.90;;;;;;4015242;29;20079;-94
2023/04/13 09:10:56;;;;;;;2.13;0.90;;;8.60;99.90;;;;;;4027907;29;20057;-93
2023/04/13 09:12:59;;;;;;;4.30;1.13;;;8.50;99.90;;;;;;4027603;29;20534;-93
2023/04/13 09:15:04;;;;;;;5.03;1.08;;;8.50;99.90;;;;;;4027994;29;20053;-93
2023/04/13 09:17:09;;;;;;;3.55;1.05;;;8.40;99.90;;;;;;4022289;29;20077;-93
2023/04/13 09:19:12;;;;;;;2.83;1.20;;;8.40;99.90;;;;;;4031765;29;20048;-93
2023/04/13 09:21:16;;;;;;;2.03;0.50;;;8.40;99.90;;;;;;4043960;29;20055;-92
2023/04/13 09:23:23;;;;;;;1.75;0.68;;;8.30;99.90;;;;;;4031689;29;20052;-94
2023/04/13 09:25:27;;;;;;;4.53;0.73;;;8.40;99.90;;;;;;4031072;29;20041;-91
2023/04/13 09:27:28;;;;;;;4.82;0.85;;;8.50;99.90;;;;;;4059886;29;20127;-93
2023/04/13 09:29:29;;;;;;;3.22;0.70;;;8.80;99.90;;;;;;4016392;29;20046;-93
2023/04/13 09:31:33;;;;;;;0.93;0.43;;;8.90;99.90;;;;;;4014522;29;20430;-92
2023/04/13 09:33:44;;;;;;;1.60;0.70;;;8.90;99.90;;;;;;4023548;29;20057;-92
2023/04/13 09:35:46;;;;;;;1.83;0.70;;;8.90;99.90;;;;;;4044482;29;20033;-93
2023/04/13 09:37:54;;;;;;;2.83;0.75;;;8.80;99.90;;;;;;4044868;29;20074;-92
2023/04/13 09:40:07;;;;;;;1.95;0.80;;;8.80;99.90;;;;;;4030459;29;20050;-92
2023/04/13 09:42:11;;;;;;;3.80;0.70;;;8.70;99.90;;;;;;4028645;29;20068;-91
2023/04/13 09:44:23;;;;;;;2.50;0.88;;;8.50;99.90;;;;;;4044315;29;20085;-92
2023/04/13 09:46:24;;;;;;;3.90;0.80;;;8.00;99.90;;;;;;4043786;29;20465;-91
2023/04/13 09:48:26;;;;;;;3.67;1.05;;;8.40;99.90;;;;;;4013051;29;20049;-92
2023/04/13 09:50:28;;;;;;;1.52;0.50;;;8.10;99.90;;;;;;4027952;29;20076;-91
2023/04/13 09:52:35;;;;;;;0.90;0.40;;;8.00;99.90;;;;;;4043908;29;20037;-92
2023/04/13 09:54:38;;;;;;;3.08;0.32;;;8.30;99.90;;;;;;4028672;29;20049;-92
2023/04/13 09:56:51;;;;;;;2.15;0.40;;;7.50;99.90;;;;;;4025484;29;20065;-93
2023/04/13 09:58:53;;;;;;;0.95;0.43;;;7.40;99.90;;;;;;4029151;29;20049;-91
2023/04/13 10:00:56;;;;;;;1.95;0.20;;;7.40;99.90;;;;;;4045033;29;20049;-92
2023/04/13 10:03:00;;;;;;;0.20;0.20;;;7.50;99.90;;;;;;4043157;29;20057;-88
2023/04/13 10:05:02;;;;;;;3.45;0.30;;;7.60;99.90;;;;;;4057844;29;20112;-88
2023/04/13 10:07:05;;;;;;;0.95;0.30;;;7.60;99.90;;;;;;4043206;29;20088;-88
2023/04/13 10:09:06;;;;;;;0.32;0.10;;;7.60;99.90;;;;;;4041665;29;20037;-89
2023/04/13 10:11:11;;;;;;;0.10;0.10;;;;;;;;;;4055712;29;20200;-89
2023/04/13 10:13:19;;;;;;;0.85;0.20;;;;;;;;;;4042586;29;20036;-89
2023/04/13 10:15:42;;;;;;;0.10;0.10;;;7.70;99.90;;;;;;4042940;29;20076;-89
2023/04/13 10:18:14;;;;;;;0.40;0.30;;;7.70;99.90;;;;;;4023475;29;20073;-89
2023/04/13 10:20:16;;;;;;;0.00;0.00;;;7.70;99.90;;;;;;4042341;29;20052;-88
2023/04/13 10:22:21;;;;;;;1.55;0.20;;;7.90;99.90;;;;;;4048071;29;20097;-89
2023/04/13 10:24:23;;;;;;;0.47;0.22;;;7.40;99.90;;;;;;4047011;29;20053;-89
2023/04/13 10:26:35;;;;;;;0.70;0.30;;;7.90;99.90;;;;;;4029403;29;20053;-88
2023/04/13 10:28:47;;;;;;;1.48;0.20;;;8.20;99.90;;;;;;4042630;29;20045;-89
2023/04/13 10:30:49;;;;;;;0.35;0.20;;;8.60;99.90;;;;;;4010757;29;20174;-89
2023/04/13 10:33:09;;;;;;;0.20;0.15;;;8.90;99.90;;;;;;4026498;29;20152;-88
2023/04/13 10:35:12;;;;;;;0.20;0.20;;;9.30;99.90;;;;;;4016226;29;20030;-89
2023/04/13 10:37:20;;;;;;;0.98;0.28;;;9.70;99.90;;;;;;4041160;29;20141;-89
2023/04/13 10:39:26;;;;;;;1.30;0.37;;;10.10;99.90;;;;;;4040834;29;20056;-90
2023/04/13 10:41:29;;;;;;;0.52;0.20;;;10.50;99.90;;;;;;4041401;29;20286;-89
2023/04/13 10:43:31;;;;;;;0.65;0.20;;;10.70;99.90;;;;;;4040295;29;20537;-88
2023/04/13 10:45:34;;;;;;;0.75;0.30;;;11.10;99.90;;;;;;4040550;29;20085;-88
2023/04/13 10:47:36;;;;;;;0.95;0.35;;;11.00;99.90;;;;;;4040005;29;20060;-89
2023/04/13 10:49:37;;;;;;;12.30;2.30;;;11.00;99.90;;;;;;4041316;29;20554;-89
2023/04/13 10:51:39;;;;;;;2.33;0.40;;;11.00;99.90;;;;;;4026166;29;20069;-89
2023/04/13 10:53:39;;;;;;;0.98;0.40;;;11.10;99.90;;;;;;4012677;29;20045;-89
2023/04/13 10:55:41;;;;;;;1.17;0.40;;;;;;;;;;4025412;29;20540;-88
2023/04/13 10:57:43;;;;;;;1.70;0.60;;;11.30;99.90;;;;;;4056743;29;20126;-89